createdAt,value
2017-09-05T00:01:41.336Z,10.73
2017-09-05T00:04:08.894Z,10.10
2017-09-05T00:06:36.400Z,10.40
2017-09-05T00:09:03.916Z,9.07
2017-09-05T00:11:42.178Z,10.67
2017-09-05T00:14:26.333Z,9.93
2017-09-05T00:16:54.543Z,8.70
2017-09-05T00:19:25.867Z,8.93
2017-09-05T00:21:54.342Z,9.87
2017-09-05T00:24:21.839Z,9.40
2017-09-05T00:26:49.359Z,8.43
2017-09-05T00:29:17.162Z,8.23
2017-09-05T00:31:44.671Z,8.70
2017-09-05T00:34:12.183Z,8.03
2017-09-05T00:36:39.731Z,7.87
2017-09-05T00:39:07.235Z,6.67
2017-09-05T00:41:34.747Z,6.73
2017-09-05T00:44:02.322Z,7.60
2017-09-05T00:46:29.833Z,7.00
2017-09-05T00:48:57.394Z,7.73
2017-09-05T00:51:25.208Z,7.77
2017-09-05T00:53:52.720Z,7.40
2017-09-05T00:56:20.236Z,8.20
2017-09-05T00:58:47.799Z,8.40
2017-09-05T01:01:15.313Z,8.87
2017-09-05T01:03:42.831Z,8.50
2017-09-05T01:06:10.394Z,9.23
2017-09-05T01:08:37.893Z,9.00
2017-09-05T01:11:05.408Z,8.93
2017-09-05T01:13:32.978Z,8.33
2017-09-05T01:16:00.500Z,9.60
2017-09-05T01:18:28.024Z,9.67
2017-09-05T01:20:55.563Z,11.10
2017-09-05T01:23:23.067Z,13.23
2017-09-05T01:25:50.606Z,12.00
2017-09-05T01:28:18.180Z,11.17
2017-09-05T01:30:45.687Z,11.40
2017-09-05T01:33:13.193Z,11.10
2017-09-05T01:35:40.743Z,11.60
2017-09-05T01:38:08.246Z,10.90
2017-09-05T01:40:35.759Z,10.50
2017-09-05T01:43:03.734Z,13.00
2017-09-05T01:45:31.248Z,17.77
2017-09-05T01:47:58.762Z,13.93
2017-09-05T01:50:26.324Z,9.53
2017-09-05T01:52:53.831Z,11.10
2017-09-05T01:55:21.372Z,11.30
2017-09-05T01:57:48.968Z,11.97
2017-09-05T02:00:16.475Z,10.63
2017-09-05T02:02:43.977Z,11.77
2017-09-05T02:05:11.799Z,10.70
2017-09-05T02:07:39.453Z,9.57
2017-09-05T02:10:07.124Z,10.50
2017-09-05T02:12:34.678Z,9.43
2017-09-05T02:15:02.191Z,10.43
2017-09-05T02:17:29.704Z,8.67
2017-09-05T02:19:57.518Z,10.20
2017-09-05T02:22:25.024Z,15.67
2017-09-05T02:24:52.535Z,21.70
2017-09-05T02:27:20.355Z,14.87
2017-09-05T02:29:47.862Z,14.33
2017-09-05T02:32:15.368Z,13.50
2017-09-05T02:34:42.956Z,14.70
2017-09-05T02:37:11.233Z,12.23
2017-09-05T02:39:38.748Z,12.87
2017-09-05T02:42:06.555Z,13.30
2017-09-05T02:44:34.054Z,13.03
2017-09-05T02:47:01.568Z,12.87
2017-09-05T02:49:29.132Z,14.30
2017-09-05T02:51:56.638Z,13.67
2017-09-05T02:54:24.161Z,14.53
2017-09-05T02:56:51.973Z,14.20
2017-09-05T02:59:19.495Z,13.93
2017-09-05T03:01:46.999Z,14.83
2017-09-05T03:04:14.857Z,15.10
2017-09-05T03:06:42.374Z,15.43
2017-09-05T03:09:09.891Z,14.93
2017-09-05T03:11:37.459Z,16.00
2017-09-05T03:14:04.971Z,15.40
2017-09-05T03:16:32.470Z,16.00
2017-09-05T03:19:00.463Z,13.83
2017-09-05T03:21:27.763Z,14.20
2017-09-05T03:23:55.275Z,14.23
2017-09-05T03:26:23.067Z,13.37
2017-09-05T03:28:50.574Z,12.10
2017-09-05T03:31:18.091Z,10.90
2017-09-05T03:33:45.640Z,12.70
2017-09-05T03:36:13.144Z,12.70
2017-09-05T03:38:40.649Z,12.97
2017-09-05T03:41:08.451Z,13.30
2017-09-05T03:43:35.958Z,14.70
2017-09-05T03:46:03.464Z,16.67
2017-09-05T03:48:31.016Z,15.47
2017-09-05T03:50:58.520Z,16.17
2017-09-05T03:53:26.027Z,14.87
2017-09-05T03:55:53.589Z,14.27
2017-09-05T03:58:21.095Z,13.73
2017-09-05T04:00:48.604Z,14.20
2017-09-05T04:03:16.396Z,14.90
2017-09-05T04:05:43.904Z,12.80
2017-09-05T04:08:11.415Z,13.90
2017-09-05T04:10:38.957Z,13.50
2017-09-05T04:13:06.506Z,15.37
2017-09-05T04:15:34.037Z,14.43
2017-09-05T04:18:01.592Z,13.63
2017-09-05T04:20:29.111Z,13.47
2017-09-05T04:22:56.616Z,14.20
2017-09-05T04:25:24.176Z,13.50
2017-09-05T04:27:51.675Z,15.60
2017-09-05T04:30:19.225Z,14.40
2017-09-05T04:32:46.781Z,14.37
2017-09-05T04:35:14.287Z,14.20
2017-09-05T04:37:41.800Z,15.40
2017-09-05T04:40:09.358Z,14.57
2017-09-05T04:42:36.868Z,14.67
2017-09-05T04:45:04.410Z,13.20
2017-09-05T04:47:32.852Z,15.07
2017-09-05T04:50:00.351Z,17.13
2017-09-05T04:52:27.863Z,15.27
2017-09-05T04:54:55.420Z,16.20
2017-09-05T04:57:22.935Z,16.00
2017-09-05T04:59:50.443Z,15.37
2017-09-05T05:02:18.018Z,13.97
2017-09-05T05:04:45.542Z,14.07
2017-09-05T05:07:13.077Z,14.70
2017-09-05T05:09:40.627Z,15.87
2017-09-05T05:12:08.136Z,14.30
2017-09-05T05:14:35.643Z,13.20
2017-09-05T05:17:03.444Z,13.10
2017-09-05T05:19:30.967Z,13.90
2017-09-05T05:21:58.488Z,12.83
2017-09-05T05:24:26.040Z,11.37
2017-09-05T05:26:53.567Z,12.63
2017-09-05T05:29:21.079Z,12.83
2017-09-05T05:31:48.640Z,11.67
2017-09-05T05:34:16.182Z,10.83
2017-09-05T05:36:43.692Z,10.70
2017-09-05T05:39:11.256Z,11.27
2017-09-05T05:41:38.770Z,10.53
2017-09-05T05:44:06.287Z,11.73
2017-09-05T05:46:33.889Z,11.40
2017-09-05T05:49:01.395Z,10.60
2017-09-05T05:51:28.915Z,11.10
2017-09-05T05:53:56.916Z,11.37
2017-09-05T05:56:24.430Z,11.63
2017-09-05T05:58:51.940Z,12.97
2017-09-05T06:01:19.498Z,13.63
2017-09-05T06:03:47.010Z,12.40
2017-09-05T06:06:14.527Z,10.97
2017-09-05T06:08:42.085Z,11.50
2017-09-05T06:11:09.604Z,12.40
2017-09-05T06:13:37.119Z,11.10
2017-09-05T06:16:04.676Z,10.33
2017-09-05T06:18:32.183Z,10.03
2017-09-05T06:20:59.700Z,10.20
2017-09-05T06:23:27.246Z,9.53
2017-09-05T06:25:54.759Z,10.17
2017-09-05T06:28:22.267Z,10.17
2017-09-05T06:30:50.160Z,10.33
2017-09-05T06:33:17.663Z,10.27
2017-09-05T06:35:45.174Z,12.23
2017-09-05T06:38:12.738Z,10.83
2017-09-05T06:40:40.239Z,11.50
2017-09-05T06:43:07.743Z,12.00
2017-09-05T06:45:35.295Z,11.07
2017-09-05T06:48:02.805Z,11.30
2017-09-05T06:50:30.307Z,9.67
2017-09-05T06:52:57.855Z,10.13
2017-09-05T06:55:25.355Z,9.80
2017-09-05T06:57:52.880Z,11.53
2017-09-05T07:00:20.439Z,9.83
2017-09-05T07:02:47.945Z,10.00
2017-09-05T07:05:15.465Z,10.10
2017-09-05T07:07:43.023Z,9.97
2017-09-05T07:10:10.526Z,8.50
2017-09-05T07:12:38.030Z,9.27
2017-09-05T07:15:05.859Z,9.73
2017-09-05T07:17:33.362Z,10.60
2017-09-05T07:20:00.864Z,9.20
2017-09-05T07:22:28.448Z,10.67
2017-09-05T07:24:55.952Z,10.60
2017-09-05T07:27:23.474Z,9.53
2017-09-05T07:29:51.031Z,11.37
2017-09-05T07:32:18.539Z,9.60
2017-09-05T07:34:46.042Z,9.47
2017-09-05T07:37:13.601Z,10.50
2017-09-05T07:39:41.103Z,10.50
2017-09-05T07:42:08.611Z,10.20
2017-09-05T07:44:36.155Z,10.60
2017-09-05T07:47:03.660Z,10.10
2017-09-05T07:49:31.175Z,10.33
2017-09-05T07:51:58.730Z,9.87
2017-09-05T07:54:26.243Z,10.00
2017-09-05T07:56:53.755Z,11.13
2017-09-05T07:59:21.305Z,8.90
2017-09-05T08:01:48.811Z,10.37
2017-09-05T08:04:16.311Z,9.13
2017-09-05T08:06:43.869Z,9.70
2017-09-05T08:09:11.367Z,9.20
2017-09-05T08:11:38.884Z,10.90
2017-09-05T08:14:06.447Z,10.30
2017-09-05T08:16:33.947Z,9.50
2017-09-05T08:19:01.468Z,10.30
2017-09-05T08:21:29.011Z,8.77
2017-09-05T08:23:56.526Z,9.30
2017-09-05T08:26:24.039Z,9.33
2017-09-05T08:28:51.939Z,9.97
2017-09-05T08:31:19.451Z,9.13
2017-09-05T08:33:46.971Z,8.80
2017-09-05T08:36:14.768Z,8.57
2017-09-05T08:38:42.276Z,10.10
2017-09-05T08:41:09.783Z,8.90
2017-09-05T08:43:37.344Z,10.40
2017-09-05T08:46:04.854Z,10.23
2017-09-05T08:48:32.350Z,8.70
2017-09-05T08:50:59.906Z,10.13
2017-09-05T08:53:27.400Z,9.00
2017-09-05T08:55:54.912Z,8.70
2017-09-05T08:58:22.539Z,8.73
2017-09-05T09:00:50.047Z,9.10
2017-09-05T09:03:17.551Z,9.40
2017-09-05T09:05:45.138Z,8.83
2017-09-05T09:08:12.628Z,8.80
2017-09-05T09:10:40.128Z,8.20
2017-09-05T09:13:07.683Z,7.43
2017-09-05T09:15:35.188Z,8.40
2017-09-05T09:18:02.687Z,7.40
2017-09-05T09:20:30.236Z,8.43
2017-09-05T09:22:57.735Z,8.10
2017-09-05T09:25:25.237Z,7.93
2017-09-05T09:27:52.787Z,7.67
2017-09-05T09:30:20.290Z,8.50
2017-09-05T09:32:47.796Z,7.50
2017-09-05T09:35:15.765Z,7.80
2017-09-05T09:37:43.271Z,7.30
2017-09-05T09:40:10.781Z,7.40
2017-09-05T09:42:38.335Z,6.33
2017-09-05T09:45:05.826Z,7.17
2017-09-05T09:47:33.327Z,6.50
2017-09-05T09:50:00.887Z,7.17
2017-09-05T09:52:28.399Z,7.83
2017-09-05T09:54:55.903Z,7.90
2017-09-05T09:57:23.449Z,8.00
2017-09-05T09:59:50.952Z,6.37
2017-09-05T10:02:18.457Z,6.30
2017-09-05T10:04:46.012Z,6.90
2017-09-05T10:07:13.515Z,7.30
2017-09-05T10:09:41.019Z,6.47
2017-09-05T10:12:08.919Z,6.00
2017-09-05T10:14:36.424Z,6.70
2017-09-05T10:17:03.927Z,6.23
2017-09-05T10:19:31.465Z,6.73
2017-09-05T10:21:58.967Z,5.97
2017-09-05T10:24:26.467Z,5.60
2017-09-05T10:26:54.023Z,6.00
2017-09-05T10:29:21.522Z,5.37
2017-09-05T10:31:49.028Z,5.57
2017-09-05T10:34:16.584Z,5.90
2017-09-05T10:36:44.079Z,5.60
2017-09-05T10:39:12.343Z,6.17
2017-09-05T10:41:39.887Z,6.17
2017-09-05T10:44:07.395Z,5.83
2017-09-05T10:46:34.897Z,4.67
2017-09-05T10:49:02.883Z,5.00
2017-09-05T10:51:30.411Z,5.50
2017-09-05T10:53:57.903Z,5.00
2017-09-05T10:56:25.447Z,5.13
2017-09-05T10:58:52.961Z,5.53
2017-09-05T11:01:20.498Z,4.93
2017-09-05T11:03:48.047Z,6.37
2017-09-05T11:06:15.551Z,5.30
2017-09-05T11:08:43.046Z,5.30
2017-09-05T11:11:10.836Z,4.47
2017-09-05T11:13:38.341Z,4.83
2017-09-05T11:16:05.849Z,4.70
2017-09-05T11:18:33.395Z,4.70
2017-09-05T11:21:00.890Z,5.80
2017-09-05T11:23:28.384Z,5.63
2017-09-05T11:25:56.023Z,5.60
2017-09-05T11:28:23.549Z,5.70
2017-09-05T11:30:51.067Z,5.27
2017-09-05T11:33:18.633Z,4.53
2017-09-05T11:35:46.139Z,6.23
2017-09-05T11:38:13.643Z,5.20
2017-09-05T11:40:41.192Z,5.27
2017-09-05T11:43:08.696Z,6.37
2017-09-05T11:45:36.195Z,5.00
2017-09-05T11:48:04.076Z,6.67
2017-09-05T11:50:31.575Z,5.60
2017-09-05T11:52:59.079Z,4.70
2017-09-05T11:55:26.612Z,4.60
2017-09-05T11:57:54.106Z,5.10
2017-09-05T12:00:21.615Z,4.30
2017-09-05T12:02:49.184Z,4.90
2017-09-05T12:05:16.691Z,5.10
2017-09-05T12:07:44.192Z,4.43
2017-09-05T12:10:12.068Z,5.53
2017-09-05T12:12:39.566Z,5.00
2017-09-05T12:15:07.071Z,5.13
2017-09-05T12:17:34.624Z,4.80
2017-09-05T12:20:02.133Z,4.53
2017-09-05T12:22:29.627Z,4.87
2017-09-05T12:24:57.178Z,4.40
2017-09-05T12:27:24.672Z,4.83
2017-09-05T12:29:52.182Z,4.63
2017-09-05T12:32:19.739Z,5.03
2017-09-05T12:34:47.244Z,4.73
2017-09-05T12:37:14.746Z,5.00
2017-09-05T12:39:42.306Z,5.40
2017-09-05T12:42:09.819Z,4.93
2017-09-05T12:44:37.324Z,4.93
2017-09-05T12:47:04.887Z,6.00
2017-09-05T12:49:32.386Z,5.13
2017-09-05T12:51:59.891Z,4.17
2017-09-05T12:54:27.452Z,4.80
2017-09-05T12:56:54.965Z,4.23
2017-09-05T12:59:22.459Z,4.67
2017-09-05T13:01:50.024Z,4.60
2017-09-05T13:04:17.535Z,5.00
2017-09-05T13:06:45.037Z,4.70
2017-09-05T13:09:12.951Z,4.67
2017-09-05T13:11:40.459Z,5.20
2017-09-05T13:14:07.959Z,4.30
2017-09-05T13:16:35.517Z,5.00
2017-09-05T13:19:03.021Z,4.20
2017-09-05T13:21:30.518Z,4.30
2017-09-05T13:23:58.367Z,4.63
2017-09-05T13:26:25.875Z,4.93
2017-09-05T13:28:53.383Z,4.80
2017-09-05T13:31:20.946Z,5.13
2017-09-05T13:33:48.451Z,4.83
2017-09-05T13:36:15.955Z,5.30
2017-09-05T13:38:43.503Z,5.10
2017-09-05T13:41:11.007Z,5.70
2017-09-05T13:43:38.508Z,4.43
2017-09-05T13:46:06.072Z,5.03
2017-09-05T13:48:33.589Z,4.87
2017-09-05T13:51:01.094Z,5.10
2017-09-05T13:53:28.647Z,5.33
2017-09-05T13:55:56.164Z,4.93
2017-09-05T13:58:23.667Z,5.40
2017-09-05T14:00:51.211Z,5.03
2017-09-05T14:03:18.714Z,5.00
2017-09-05T14:05:46.219Z,4.30
2017-09-05T14:08:13.771Z,4.63
2017-09-05T14:10:41.275Z,4.63
2017-09-05T14:13:08.771Z,4.50
2017-09-05T14:15:36.319Z,4.40
2017-09-05T14:18:04.583Z,3.83
2017-09-05T14:20:32.076Z,4.50
2017-09-05T14:22:59.603Z,3.93
2017-09-05T14:25:27.099Z,4.00
2017-09-05T14:27:54.605Z,4.10
2017-09-05T14:30:22.164Z,4.30
2017-09-05T14:32:49.671Z,4.60
2017-09-05T14:35:17.175Z,4.60
2017-09-05T14:37:44.721Z,4.90
2017-09-05T14:40:12.219Z,4.10
2017-09-05T14:42:39.727Z,4.30
2017-09-05T14:45:07.537Z,4.60
2017-09-05T14:47:35.115Z,5.00
2017-09-05T14:50:02.627Z,4.60
2017-09-05T14:52:30.180Z,5.17
2017-09-05T14:54:57.687Z,4.83
2017-09-05T14:57:25.197Z,4.57
2017-09-05T14:59:52.734Z,5.23
2017-09-05T15:02:20.245Z,5.17
2017-09-05T15:04:47.521Z,5.40
2017-09-05T15:07:14.840Z,5.83
2017-09-05T15:09:42.353Z,5.27
2017-09-05T15:12:09.851Z,5.90
2017-09-05T15:14:37.411Z,5.30
2017-09-05T15:17:05.687Z,5.70
2017-09-05T15:19:33.188Z,5.20
2017-09-05T15:22:00.747Z,4.93
2017-09-05T15:24:28.247Z,4.60
2017-09-05T15:26:55.762Z,4.83
2017-09-05T15:29:23.334Z,5.10
2017-09-05T15:31:50.836Z,4.60
2017-09-05T15:34:18.334Z,4.73
2017-09-05T15:36:45.871Z,5.57
2017-09-05T15:39:13.371Z,4.93
2017-09-05T15:41:40.916Z,5.63
2017-09-05T15:44:08.424Z,5.57
2017-09-05T15:46:35.923Z,6.00
2017-09-05T15:49:03.488Z,5.23
2017-09-05T15:51:30.991Z,5.13
2017-09-05T15:53:58.495Z,5.60
2017-09-05T15:56:26.050Z,5.60
2017-09-05T15:58:53.551Z,5.73
2017-09-05T16:01:21.070Z,5.37
2017-09-05T16:03:48.623Z,5.40
2017-09-05T16:06:16.960Z,5.73
2017-09-05T16:08:44.459Z,4.50
2017-09-05T16:11:12.016Z,5.03
2017-09-05T16:13:39.592Z,4.80
2017-09-05T16:16:07.161Z,6.37
2017-09-05T16:18:34.708Z,5.77
2017-09-05T16:21:02.287Z,4.93
2017-09-05T16:23:29.797Z,5.57
2017-09-05T16:25:57.370Z,5.20
2017-09-05T16:28:25.643Z,5.30
2017-09-05T16:30:53.158Z,12.30
2017-09-05T16:33:20.805Z,8.70
2017-09-05T16:35:48.298Z,6.10
2017-09-05T16:38:15.847Z,6.40
2017-09-05T16:40:43.387Z,6.13
2017-09-05T16:43:10.895Z,7.80
2017-09-05T16:45:38.456Z,6.13
2017-09-05T16:48:06.097Z,6.43
2017-09-05T16:50:33.599Z,5.83
2017-09-05T16:53:01.095Z,6.20
2017-09-05T16:55:28.642Z,6.27
2017-09-05T16:57:56.343Z,6.80
2017-09-05T17:00:23.896Z,6.60
2017-09-05T17:02:51.516Z,5.70
2017-09-05T17:05:19.015Z,5.03
2017-09-05T17:07:47.533Z,5.93
2017-09-05T17:10:15.275Z,5.60
2017-09-05T17:12:42.832Z,5.43
2017-09-05T17:15:10.400Z,5.67
2017-09-05T17:17:38.013Z,5.73
2017-09-05T17:20:05.710Z,6.90
2017-09-05T17:22:33.288Z,6.50
2017-09-05T17:25:01.030Z,5.40
2017-09-05T17:27:28.630Z,5.80
2017-09-05T17:29:56.214Z,6.70
2017-09-05T17:32:23.784Z,6.90
2017-09-05T17:34:51.348Z,6.90
2017-09-05T17:37:18.924Z,6.17
2017-09-05T17:39:46.553Z,5.97
2017-09-05T17:42:14.359Z,6.70
2017-09-05T17:44:41.935Z,6.50
2017-09-05T17:47:10.625Z,6.90
2017-09-05T17:49:38.323Z,6.30
2017-09-05T17:52:05.907Z,6.50
2017-09-05T17:54:33.528Z,6.40
2017-09-05T17:57:01.089Z,7.30
2017-09-05T17:59:28.688Z,6.00
2017-09-05T18:01:56.267Z,7.33
2017-09-05T18:04:23.864Z,6.63
2017-09-05T18:06:51.554Z,6.17
2017-09-05T18:09:19.169Z,5.23
2017-09-05T18:11:46.877Z,6.67
2017-09-05T18:14:14.584Z,6.00
2017-09-05T18:16:42.292Z,6.30
2017-09-05T18:19:10.005Z,6.57
2017-09-05T18:21:37.703Z,7.20
2017-09-05T18:24:05.328Z,7.13
2017-09-05T18:26:32.896Z,6.60
2017-09-05T18:29:00.497Z,5.40
2017-09-05T18:31:28.239Z,7.40
2017-09-05T18:33:55.840Z,6.97
2017-09-05T18:36:23.571Z,5.90
2017-09-05T18:38:51.196Z,7.23
2017-09-05T18:41:18.889Z,7.07
2017-09-05T18:43:46.604Z,8.07
2017-09-05T18:46:14.221Z,6.60
2017-09-05T18:48:41.802Z,8.37
2017-09-05T18:51:09.386Z,7.40
2017-09-05T18:53:36.980Z,7.00
2017-09-05T18:56:04.483Z,7.80
2017-09-05T18:58:32.182Z,7.10
2017-09-05T19:00:59.742Z,8.17
2017-09-05T19:03:27.442Z,8.20
2017-09-05T19:05:55.055Z,8.27
2017-09-05T19:08:22.803Z,7.90
2017-09-05T19:10:50.499Z,8.10
2017-09-05T19:13:18.063Z,7.30
2017-09-05T19:15:46.041Z,6.30
2017-09-05T19:18:13.745Z,7.80
2017-09-05T19:20:41.446Z,8.23
2017-09-05T19:23:09.416Z,7.13
2017-09-05T19:25:36.933Z,8.00
2017-09-05T19:28:04.625Z,7.63
2017-09-05T19:30:32.242Z,7.77
2017-09-05T19:32:59.941Z,7.27
2017-09-05T19:35:27.512Z,7.67
2017-09-05T19:37:55.266Z,8.10
2017-09-05T19:40:23.604Z,8.20
2017-09-05T19:42:51.185Z,8.33
2017-09-05T19:45:19.138Z,8.80
2017-09-05T19:47:46.843Z,8.10
2017-09-05T19:50:14.551Z,8.50
2017-09-05T19:52:42.555Z,8.20
2017-09-05T19:55:10.251Z,9.00
2017-09-05T19:57:37.760Z,9.07
2017-09-05T20:00:05.500Z,8.53
2017-09-05T20:02:33.347Z,8.40
2017-09-05T20:05:00.920Z,9.00
2017-09-05T20:07:28.891Z,7.70
2017-09-05T20:09:56.484Z,9.90
2017-09-05T20:12:24.184Z,8.83
2017-09-05T20:14:52.287Z,8.87
2017-09-05T20:17:19.872Z,9.47
2017-09-05T20:19:47.443Z,8.60
2017-09-05T20:22:15.037Z,9.57
2017-09-05T20:24:42.742Z,9.20
2017-09-05T20:27:10.316Z,8.67
2017-09-05T20:29:38.067Z,8.13
2017-09-05T20:32:05.636Z,9.50
2017-09-05T20:34:33.353Z,9.37
2017-09-05T20:37:00.969Z,9.37
2017-09-05T20:39:28.532Z,9.17
2017-09-05T20:41:56.080Z,8.93
2017-09-05T20:44:23.657Z,10.00
2017-09-05T20:46:51.224Z,8.37
2017-09-05T20:49:18.733Z,9.50
2017-09-05T20:51:46.344Z,9.10
2017-09-05T20:54:13.890Z,9.60
2017-09-05T20:56:41.417Z,9.23
2017-09-05T20:59:09.406Z,11.37
2017-09-05T21:01:36.976Z,8.47
2017-09-05T21:04:04.544Z,9.10
2017-09-05T21:06:32.236Z,10.50
2017-09-05T21:08:59.807Z,9.03
2017-09-05T21:11:27.376Z,8.90
2017-09-05T21:13:55.100Z,10.47
2017-09-05T21:16:22.631Z,8.63
2017-09-05T21:18:50.188Z,9.30
2017-09-05T21:21:17.806Z,9.30
2017-09-05T21:23:45.375Z,9.87
2017-09-05T21:26:12.945Z,9.80
2017-09-05T21:28:40.595Z,9.47
2017-09-05T21:31:08.173Z,9.83
2017-09-05T21:33:35.769Z,9.50
2017-09-05T21:36:03.324Z,10.37
2017-09-05T21:38:30.845Z,10.13
2017-09-05T21:40:58.354Z,9.57
2017-09-05T21:43:25.924Z,9.90
2017-09-05T21:45:53.454Z,9.33
2017-09-05T21:48:21.024Z,9.00
2017-09-05T21:50:48.987Z,9.50
2017-09-05T21:53:16.498Z,10.23
2017-09-05T21:55:44.002Z,8.60
2017-09-05T21:58:11.563Z,9.30
2017-09-05T22:00:39.070Z,9.73
2017-09-05T22:03:06.643Z,8.80
2017-09-05T22:05:34.228Z,9.47
2017-09-05T22:08:01.735Z,9.50
2017-09-05T22:10:29.287Z,9.80
2017-09-05T22:12:56.854Z,8.43
2017-09-05T22:15:30.044Z,9.90
2017-09-05T22:17:57.640Z,10.00
2017-09-05T22:20:30.840Z,10.43
2017-09-05T22:22:58.747Z,10.60
2017-09-05T22:25:31.810Z,9.80
2017-09-05T22:28:05.291Z,11.33
2017-09-05T22:30:32.801Z,10.23
2017-09-05T22:33:00.302Z,10.37
2017-09-05T22:35:28.152Z,9.33
2017-09-05T22:37:55.657Z,9.27
2017-09-05T22:40:23.168Z,9.10
2017-09-05T22:42:50.722Z,9.53
2017-09-05T22:45:18.239Z,9.53
2017-09-05T22:47:45.739Z,9.53
2017-09-05T22:50:13.651Z,9.53
2017-09-05T22:52:41.187Z,9.77
2017-09-05T22:55:08.756Z,9.67
2017-09-05T22:57:36.315Z,8.70
2017-09-05T23:00:03.815Z,8.30
2017-09-05T23:02:31.315Z,8.63
2017-09-05T23:04:58.901Z,10.17
2017-09-05T23:07:26.415Z,8.87
2017-09-05T23:09:54.691Z,9.20
2017-09-05T23:12:22.255Z,9.40
2017-09-05T23:14:49.760Z,8.37
2017-09-05T23:17:17.256Z,9.60
2017-09-05T23:19:44.896Z,8.57
2017-09-05T23:22:12.419Z,8.00
2017-09-05T23:24:39.917Z,8.50
2017-09-05T23:27:07.471Z,10.03
2017-09-05T23:29:34.967Z,8.90
2017-09-05T23:32:02.467Z,7.80
2017-09-05T23:34:30.053Z,9.10
2017-09-05T23:36:57.567Z,9.67
2017-09-05T23:39:25.066Z,10.27
2017-09-05T23:41:52.923Z,9.63
2017-09-05T23:44:20.423Z,9.90
2017-09-05T23:46:47.951Z,9.93
2017-09-05T23:49:15.503Z,9.30
2017-09-05T23:51:43.020Z,8.80
2017-09-05T23:54:10.535Z,9.40
2017-09-05T23:56:38.090Z,10.57
2017-09-05T23:59:05.607Z,8.33
